Tiempo atmosférico en la estación meteorológica de Valmadrid, Zaragoza (535 m.)



Fecha
DESCASC
Temp. máxima en grados centígrados (hora)
DESCASC
Temp. mínima en grados centígrados (hora)
DESCASC
Temp. media en grados centígrados
DESCASC
Racha de viento máxima en m/sg (hora)
DESCASC
Velocidad máxima media en intervalos de 10 minutos(hora)
DESCASC
Precipitaciones diarias en mm
DESCASC
Precipitaciones de 00:00 a 06:00 en mm
DESCASC
Precipitaciones de 06:00 a 12:00 en mm
DESCASC
Precipitaciones de 12:00 a 18:00 en mm
DESCASC
Precipitaciones de 18:00 a 24:00 en mm
DESCASC
13-02-2020 16.6 (15:40) 5.5 (07:50) 11.1 12.5 (13:20) 8.61 (13:20) 0 0 0 0 0
12-02-2020 14.4 (12:20) 7.7 (04:00) 11 6.39 (09:50) 4.44 (11:10) 0 0 0 0 0
11-02-2020 14.9 (15:40) 10.1 (18:40) 12.5 12.5 (06:30) 8.89 (07:40) 0 0 0 0 0
10-02-2020 19 (14:50) 10.2 (00:00) 14.6 18.06 (17:30) 11.94 (17:40) 0 0 0 0 0
09-02-2020 16.1 (14:20) 3 (00:00) 9.6 11.11 (23:20) 6.94 (23:00) 0 0 0 0 0
08-02-2020 13.9 (15:10) 0.7 (00:00) 7.3 6.11 (20:20) 4.17 (20:30) 0 0 0 0 0
07-02-2020 11.9 (15:40) 1.8 (00:00) 6.8 4.44 (16:10) 2.78 (16:10) 0 0 0 0 0
06-02-2020 11.2 (16:10) 0.2 (00:00) 5.7 6.11 (16:20) 4.17 (15:20) 0 0 0 0 0
05-02-2020 11.7 (15:50) 2.1 (00:00) 6.9 22.5 (00:20) 17.22 (00:40) 0 0 0 0 0
04-02-2020 16.8 (00:00) 6.5 (00:00) 11.6 25 (23:00) 17.78 (23:00) 0 0 0 0 0
03-02-2020 23.2 (15:20) 11.7 (06:50) 17.5 11.11 (05:30) 8.06 (05:20) 0 0 0 0 0
02-02-2020 19.8 (16:10) 12.1 (00:00) 15.9 14.44 (05:10) 8.89 (02:50) 0 0 0 0 0
01-02-2020 19.1 (14:10) 11.5 (00:00) 15.3 12.78 (09:50) 7.78 (09:50) 0.6 0.4 0.2 0 0
31-01-2020 17.2 (15:10) 10.7 (00:00) 14 15 (10:50) 8.89 (07:40) 0 0 0 0 0
30-01-2020 15.1 (14:00) 11.1 (00:00) 13.1 16.11 (13:10) 9.17 (13:10) 0 0 0 0 0
29-01-2020 17.1 (14:50) 9.1 (00:00) 13.1 12.78 (11:00) 7.5 (11:00) 0 0 0 0 0
28-01-2020 14.9 (12:40) 9 (00:00) 11.9 14.17 (13:00) 8.89 (13:20) 2.2 0 0 0.6 1.6
27-01-2020 10.2 (14:10) 3.5 (00:00) 6.8 12.5 (00:30) 7.22 (22:10) 0 0 0 0 0
26-01-2020 11 (15:10) 3.1 (00:00) 7 10.56 (13:40) 6.67 (14:00) 1 0.8 0 0.2 0
25-01-2020 10.8 (14:50) 5 (00:00) 7.9 5.56 (13:50) 3.89 (13:50) 2.6 0 0.4 0 2.2
24-01-2020 11.3 (12:30) 1.7 (00:00) 6.5 3.89 (21:30) 2.5 (14:40) 0 0 0 0 0
23-01-2020 9.4 (13:40) 3.5 (00:00) 6.4 7.78 (20:30) 5.28 (20:40) 0.2 0.2 0 0 0
22-01-2020 6.2 (16:20) 1.5 (00:00) 3.8 6.11 (13:50) 4.17 (13:20) 1.4 0 0.2 0 1.2
21-01-2020 6.2 (18:50) -0.5 (-00:0) 2.8 11.11 (18:50) 6.39 (00:20) 67.8 5.4 18.2 20.8 23.4
20-01-2020 3.2 (14:50) -0.4 (00:00) 1.4 17.5 (03:40) 13.06 (03:30) 0.4 0 0 0 0.4
19-01-2020 5.2 (15:20) 1.5 (00:00) 3.3 20.56 (18:40) 14.44 (18:50) 6.6 0.2 6.2 0.2 0
18-01-2020 10.7 (12:40) 1.5 (00:00) 6.1 17.5 (23:30) 9.72 (23:30) 1 0 0 0 1

Gráficas

Temp. máximas Temp. mínimas Temp. medias Precipitaciones Rachas de viento máximas Velocidades máximas media en intervalos de 10 minutos

Datos horarios

Fecha y hora oficial Temperatura (ºC) Velocidad del viento (km/h) Dirección del viento Racha (km/h) Dirección de racha Precipitación (mm) Presión (hPa) Tendencia (hPa) Humedad (%)
2020-02-16 23:00:00 13.7 13 Sudoeste 24 Sur 0 -- -- 60
2020-02-16 22:00:00 13.4 10 Sur 22 Sur 0 -- -- 59
2020-02-16 21:00:00 11.4 6 Sur 14 Sur 0 -- -- 70
2020-02-16 20:00:00 12 9 Sur 14 Sur 0 -- -- 69
2020-02-16 19:00:00 13 6 Sur 15 Sudeste 0 -- -- 69
2020-02-16 18:00:00 14.2 9 Sudeste 21 Sudeste 0 -- -- 63
2020-02-16 17:00:00 16.3 13 Sudeste 24 Este 0 -- -- 51
2020-02-16 16:00:00 16.7 9 Sudeste 24 Sudeste 0 -- -- 50
2020-02-16 15:00:00 16.7 13 Sudeste 28 Este 0 -- -- 52
2020-02-16 14:00:00 17.2 13 Sudeste 24 Sudeste 0 -- -- 48
2020-02-16 13:00:00 17 15 Este 25 Sudoeste 0 -- -- 47
2020-02-16 12:00:00 17.5 13 Sudoeste 24 Sudoeste 0 -- -- 50
2020-02-16 11:00:00 16.6 9 Sudoeste 22 Sudoeste 0 -- -- 53
2020-02-16 10:00:00 14.4 2 Nordeste 8 Sudeste 0 -- -- 58
2020-02-16 09:00:00 8.6 6 Sudeste 9 Sudeste 0 -- -- 75
2020-02-16 08:00:00 6.7 0 Calma 12 Sur 0 -- -- 78
2020-02-16 07:00:00 10.7 8 Sur 20 Sudoeste 0 -- -- 63
2020-02-16 06:00:00 11.5 8 Sudoeste 19 Sudoeste 0 -- -- 62
2020-02-16 05:00:00 9.4 8 Sudeste 22 Sudoeste 0 -- -- 66
2020-02-16 04:00:00 8.8 4 Este 14 Sur 0 -- -- 64
2020-02-16 03:00:00 11.4 13 Sur 21 Sur 0 -- -- 56
2020-02-16 02:00:00 9.1 7 Este 11 Este 0 -- -- 69
2020-02-16 01:00:00 9.3 7 Sudeste 10 Sudeste 0 -- -- 68
2020-02-16 00:00:00 10.4 10 Sudeste 15 Este 0 -- -- 66
2020-02-15 23:00:00 9.3 8 Sudeste 12 Este 0 -- -- 79
2020-02-15 22:00:00 11.3 4 Sur 13 Sur 0 -- -- 76
2020-02-15 21:00:00 11.6 2 Sur 15 Sur 0 -- -- 75
2020-02-15 20:00:00 11.6 8 Sur 13 Sur 0 -- -- 74
2020-02-15 19:00:00 11.8 7 Sur 10 Sudeste 0 -- -- 75
2020-02-15 18:00:00 13.7 7 Sudeste 16 Este 0 -- -- 69
2020-02-15 17:00:00 15 10 Este 24 Este 0 -- -- 63
2020-02-15 16:00:00 15.4 15 Este 24 Este 0 -- -- 62
2020-02-15 15:00:00 17.8 5 Nordeste 14 Norte 0 -- -- 54
2020-02-15 14:00:00 16.4 9 Norte 18 Norte 0 -- -- 60
2020-02-15 13:00:00 16.1 7 Norte 14 Noroeste 0 -- -- 62
2020-02-15 12:00:00 14 8 Norte 17 Noroeste 0 -- -- 69
2020-02-15 11:00:00 14.7 5 Norte 9 Norte 0 -- -- 64
2020-02-15 10:00:00 12.1 2 Nordeste 13 Sudeste 0 -- -- 73
2020-02-15 09:00:00 6.5 8 Sudeste 11 Sur 0 -- -- 90
2020-02-15 08:00:00 5.8 6 Sudeste 9 Sudeste 0 -- -- 89
2020-02-15 07:00:00 5.2 10 Sudeste 14 Sudeste 0 -- -- 92
2020-02-15 06:00:00 4.7 11 Sudeste 15 Sudeste 0 -- -- 93
2020-02-15 05:00:00 6 5 Este 10 Sudeste 0 -- -- 88
2020-02-15 04:00:00 5.1 9 Sudeste 13 Sudeste 0 -- -- 93
2020-02-15 03:00:00 5.1 8 Sudeste 13 Sudeste 0 -- -- 93
2020-02-15 02:00:00 5.4 9 Sudeste 14 Sudeste 0 -- -- 93
2020-02-15 01:00:00 5.3 6 Sur 17 Sudeste 0 -- -- 93
2020-02-15 00:00:00 5.7 7 Sudeste 14 Sudeste 0 -- -- 92
2020-02-14 23:00:00 6.3 7 Sudeste 14 Sudeste 0 -- -- 91
2020-02-14 22:00:00 6.5 10 Sudeste 14 Sudeste 0 -- -- 90
2020-02-14 21:00:00 7.4 10 Sudeste 13 Sudeste 0 -- -- 86
2020-02-14 20:00:00 7.9 4 Sudeste 11 Sudeste 0 -- -- 83
2020-02-14 19:00:00 9.5 2 Sudoeste 7 Oeste 0 -- -- 79
2020-02-14 18:00:00 13.4 3 Noroeste 20 Oeste 0 -- -- 62
2020-02-14 17:00:00 15.7 14 Oeste 22 Oeste 0 -- -- 56
2020-02-14 16:00:00 16.4 12 Noroeste 25 Noroeste 0 -- -- 55
2020-02-14 15:00:00 16.1 15 Noroeste 25 Noroeste 0 -- -- 56
2020-02-14 14:00:00 15.5 12 Oeste 25 Sudoeste 0 -- -- 56
2020-02-14 13:00:00 14.1 21 Oeste 30 Oeste 0 -- -- 63
2020-02-14 12:00:00 13.2 18 Oeste 31 Oeste 0 -- -- 68
2020-02-14 11:00:00 12.1 13 Oeste 27 Oeste 0 -- -- 72
2020-02-14 10:00:00 10.3 15 Oeste 31 Sudoeste 0 -- -- 78
2020-02-14 09:00:00 9 9 Oeste 19 Sudoeste 0 -- -- 80
2020-02-14 08:00:00 7.2 13 Oeste 23 Oeste 0 -- -- 87
2020-02-14 07:00:00 8.9 12 Sudoeste 28 Oeste 0 -- -- 80
2020-02-14 06:00:00 9.3 19 Sudoeste 32 Sudoeste 0 -- -- 80
2020-02-14 05:00:00 9.4 20 Oeste 31 Oeste 0 -- -- 81
2020-02-14 04:00:00 9.5 17 Oeste 30 Sudoeste 0 -- -- 77
2020-02-14 03:00:00 9.6 18 Oeste 33 Sudoeste 0 -- -- 76
2020-02-14 02:00:00 10.8 21 Oeste 33 Sudoeste 0 -- -- 71
2020-02-14 01:00:00 11 19 Sudoeste 30 Oeste 0 -- -- 70
2020-02-14 00:00:00 11.5 21 Sudoeste 33 Sudoeste 0 -- -- 68
2020-02-13 23:00:00 11.7 19 Sudoeste 30 Sudoeste 0 -- -- 68
2020-02-13 22:00:00 11.2 13 Oeste 23 Oeste 0 -- -- 70
2020-02-13 21:00:00 12.2 12 Oeste 22 Oeste 0 -- -- 70
2020-02-13 20:00:00 11.5 9 Oeste 18 Oeste 0 -- -- 78
2020-02-13 19:00:00 13 12 Oeste 30 Sudoeste 0 -- -- 61
2020-02-13 18:00:00 14.8 15 Oeste 40 Oeste 0 -- -- 52
2020-02-13 17:00:00 15.7 22 Oeste 38 Sudoeste 0 -- -- 56
2020-02-13 16:00:00 16.1 26 Oeste 41 Oeste 0 -- -- 56
2020-02-13 15:00:00 15.5 20 Sudoeste 38 Oeste 0 -- -- 60
2020-02-13 14:00:00 16 27 Oeste 45 Oeste 0 -- -- 58
2020-02-13 13:00:00 16.1 30 Oeste 45 Oeste 0 -- -- 60
2020-02-13 12:00:00 15.3 25 Oeste 42 Oeste 0 -- -- 63
2020-02-13 11:00:00 14.5 14 Oeste 27 Sudoeste 0 -- -- 69
2020-02-13 10:00:00 12.4 11 Sudoeste 26 Sudoeste 0 -- -- 76
2020-02-13 09:00:00 7.7 6 Sur 15 Sudeste 0 -- -- 94
2020-02-13 08:00:00 5.8 4 Sur 8 Sudeste 0 -- -- 98
2020-02-13 07:00:00 6.5 5 Sudeste 13 Sudeste 0 -- -- 98
2020-02-13 06:00:00 7.6 7 Sudeste 10 Sudeste 0 -- -- 97
2020-02-13 05:00:00 7.5 3 Sur 5 Sur 0 -- -- 98
2020-02-13 04:00:00 7.8 3 Oeste 9 Sudeste 0 -- -- 98
2020-02-13 03:00:00 8.7 5 Sudeste 10 Sudeste 0 -- -- 97
2020-02-13 02:00:00 8.9 3 Sudeste 7 Sudeste 0 -- -- 97
2020-02-13 01:00:00 9 4 Sur 8 Sur 0 -- -- 97
2020-02-13 00:00:00 9.2 4 Sur 10 Sudeste 0 -- -- 97
2020-02-12 23:00:00 9.4 6 Sudeste 9 Sudeste 0 -- -- 95
2020-02-12 22:00:00 10 8 Este 14 Este 0 -- -- 83
2020-02-12 21:00:00 10.9 7 Sudeste 13 Sudeste 0 -- -- 73
2020-02-12 20:00:00 10.5 3 Este 10 Sudeste 0 -- -- 74
2020-02-12 19:00:00 11 4 Sudeste 10 Sudeste 0 -- -- 73
2020-02-12 18:00:00 11.7 4 Este 9 Norte 0 -- -- 73
2020-02-12 17:00:00 11.9 6 Norte 14 Norte 0 -- -- 71
2020-02-12 16:00:00 12.7 9 Norte 14 Norte 0 -- -- 66
2020-02-12 15:00:00 14 5 Nordeste 13 Norte 0 -- -- 64
2020-02-12 14:00:00 14 4 Oeste 15 Oeste 0 -- -- 61
2020-02-12 13:00:00 14.1 7 Oeste 14 Oeste 0 -- -- 61
2020-02-12 12:00:00 13.7 8 Oeste 22 Sudoeste 0 -- -- 63
2020-02-12 11:00:00 11.6 14 Oeste 21 Sudoeste 0 -- -- 70
2020-02-12 10:00:00 10.3 13 Oeste 23 Oeste 0 -- -- 78
2020-02-12 09:00:00 9.3 6 Sudoeste 14 Sudoeste 0 -- -- 82
2020-02-12 08:00:00 9.1 12 Sudoeste 20 Oeste 0 -- -- 83
2020-02-12 07:00:00 9.6 13 Oeste 21 Oeste 0 -- -- 78
2020-02-12 06:00:00 9.6 12 Oeste 21 Oeste 0 -- -- 79
2020-02-12 05:00:00 9.3 15 Oeste 22 Oeste 0 -- -- 82
2020-02-12 04:00:00 7.7 6 Oeste 18 Oeste 0 -- -- 87
2020-02-12 03:00:00 9.3 12 Sudoeste 18 Sudoeste 0 -- -- 82
2020-02-12 02:00:00 10.1 13 Sudoeste 22 Sudoeste 0 -- -- 79
2020-02-12 01:00:00 10.4 12 Sudoeste 19 Oeste 0 -- -- 77
2020-02-12 00:00:00 10.8 12 Oeste 25 Noroeste 0 -- -- 75
2020-02-11 23:00:00 11.1 13 Oeste 24 Oeste 0 -- -- 74
2020-02-11 22:00:00 11 13 Noroeste 23 Oeste 0 -- -- 75
2020-02-11 21:00:00 10.9 9 Oeste 18 Noroeste 0 -- -- 79
2020-02-11 20:00:00 11 10 Oeste 22 Oeste 0 -- -- 79
2020-02-11 19:00:00 10.1 7 Oeste 16 Oeste 0 -- -- 83
2020-02-11 18:00:00 11.4 9 Noroeste 28 Noroeste 0 -- -- 76
2020-02-11 17:00:00 13.1 18 Noroeste 28 Noroeste 0 -- -- 70
2020-02-11 16:00:00 14.2 19 Noroeste 34 Noroeste 0 -- -- 65
2020-02-11 15:00:00 13.8 21 Noroeste 39 Noroeste 0 -- -- 67
2020-02-11 14:00:00 14.1 26 Noroeste 38 Noroeste 0 -- -- 67
2020-02-11 13:00:00 13.6 23 Noroeste 37 Oeste 0 -- -- 70
2020-02-11 12:00:00 14.5 18 Oeste 32 Sudoeste 0 -- -- 67
2020-02-11 11:00:00 13.5 20 Oeste 40 Noroeste 0 -- -- 66
2020-02-11 10:00:00 11.7 18 Oeste 38 Oeste 0 -- -- 73
2020-02-11 09:00:00 11.4 19 Noroeste 45 Oeste 0 -- -- 75
2020-02-11 08:00:00 11.9 29 Oeste 42 Sudoeste 0 -- -- 71
2020-02-11 07:00:00 12 29 Oeste 45 Oeste 0 -- -- 71
2020-02-11 06:00:00 12 8 Sudoeste 34 Sudoeste 0 -- -- 71
2020-02-11 05:00:00 11.8 8 Oeste 36 Oeste 0 -- -- 72
2020-02-11 04:00:00 12.1 15 Sudoeste 35 Oeste 0 -- -- 69
2020-02-11 03:00:00 12.2 12 Sudoeste 26 Sudoeste 0 -- -- 68
2020-02-11 02:00:00 12.8 9 Sudoeste 42 Sudoeste 0 -- -- 67
2020-02-11 01:00:00 13 25 Oeste 44 Sudoeste 0 -- -- 66
2020-02-11 00:00:00 13.2 22 Sudoeste 38 Sudoeste 0 -- -- 67
2020-02-10 23:00:00 12.5 12 Oeste 35 Sudoeste 0 -- -- 69
2020-02-10 22:00:00 12.4 7 Norte 24 Noroeste 0 -- -- 69
2020-02-10 21:00:00 12.8 12 Oeste 46 Sudoeste 0 -- -- 67
2020-02-10 20:00:00 14.9 39 Oeste 64 Oeste 0 -- -- 60
2020-02-10 19:00:00 15 32 Oeste 58 Sudoeste 0 -- -- 62
2020-02-10 18:00:00 16.1 40 Oeste 65 Sudoeste 0 -- -- 59
2020-02-10 17:00:00 17.2 31 Oeste 50 Sudoeste 0 -- -- 55
2020-02-10 16:00:00 18.9 12 Oeste 33 Noroeste 0 -- -- 52
2020-02-10 15:00:00 18.9 16 Sudoeste 32 Sudoeste 0 -- -- 51
2020-02-10 14:00:00 17.8 19 Sudoeste 40 Oeste 0 -- -- 55
2020-02-10 13:00:00 16.5 27 Oeste 55 Oeste 0 -- -- 61
2020-02-10 12:00:00 15.6 32 Oeste 50 Sudoeste 0 -- -- 62
2020-02-10 11:00:00 15.2 28 Oeste 48 Sudoeste 0 -- -- 64
2020-02-10 10:00:00 13.8 23 Sudoeste 36 Sudoeste 0 -- -- 68
2020-02-10 09:00:00 11.8 12 Sudoeste 21 Sudoeste 0 -- -- 74
2020-02-10 08:00:00 10.8 7 Sur 42 Sudoeste 0 -- -- 76
2020-02-10 07:00:00 11.6 18 Sudoeste 43 Sudoeste 0 -- -- 74
2020-02-10 06:00:00 12.3 32 Sudoeste 52 Oeste 0 -- -- 71
2020-02-10 05:00:00 12.1 31 Oeste 53 Oeste 0 -- -- 71
2020-02-10 04:00:00 12.6 28 Oeste 54 Oeste 0 -- -- 69
2020-02-10 03:00:00 12.6 27 Oeste 51 Oeste 0 -- -- 69
2020-02-10 02:00:00 12.6 18 Sudoeste 35 Sudoeste 0 -- -- 67
2020-02-10 01:00:00 12.3 13 Sudoeste 34 Sudoeste 0 -- -- 66
2020-02-10 00:00:00 12 15 Sudoeste 40 Oeste 0 -- -- 65
2020-02-09 23:00:00 11.4 25 Oeste 38 Oeste 0 -- -- 66
2020-02-09 22:00:00 11.1 7 Sudoeste 22 Sudoeste 0 -- -- 66
2020-02-09 21:00:00 11 11 Sudoeste 21 Sudoeste 0 -- -- 65
2020-02-09 20:00:00 10.8 6 Sur 14 Sur 0 -- -- 66
2020-02-09 19:00:00 11 5 Sur 17 Oeste 0 -- -- 67
2020-02-09 18:00:00 13.3 12 Oeste 20 Oeste 0 -- -- 58
2020-02-09 17:00:00 14.8 10 Sudoeste 20 Sudoeste 0 -- -- 52
2020-02-09 16:00:00 15 12 Oeste 26 Oeste 0 -- -- 50
2020-02-09 15:00:00 15.2 16 Oeste 28 Sudoeste 0 -- -- 53
2020-02-09 14:00:00 15.3 9 Oeste 37 Noroeste 0 -- -- 51
2020-02-09 13:00:00 15.2 12 Oeste 25 Oeste 0 -- -- 51
2020-02-09 12:00:00 13.6 12 Sudoeste 22 Sur 0 -- -- 57
2020-02-09 11:00:00 12.1 15 Sudoeste 24 Sudoeste 0 -- -- 60
2020-02-09 10:00:00 10.1 10 Sudoeste 22 Sur 0 -- -- 68
2020-02-09 09:00:00 7.6 6 Sudoeste 23 Sudoeste 0 -- -- 78
2020-02-09 08:00:00 6.4 7 Sudoeste 18 Sur 0 -- -- 82
2020-02-09 07:00:00 6.5 5 Sur 22 Sur 0 -- -- 84
2020-02-09 06:00:00 4.2 9 Sudeste 13 Sudeste 0 -- -- 93
2020-02-09 05:00:00 3 0 Calma 12 Sudeste 0 -- -- 98
2020-02-09 04:00:00 4.1 9 Sudeste 12 Sudeste 0 -- -- 96
2020-02-09 03:00:00 5.1 8 Sudeste 13 Sudeste 0 -- -- 94
2020-02-09 02:00:00 4.7 9 Sudeste 13 Sudeste 0 -- -- 94
2020-02-09 01:00:00 6.1 6 Sudeste 10 Sudoeste 0 -- -- 91
2020-02-09 00:00:00 7.9 3 Sudeste 9 Sudoeste 0 -- -- 87
2020-02-08 23:00:00 8.8 7 Sudoeste 9 Sudoeste 0 -- -- 84
2020-02-08 22:00:00 9.1 3 Sudeste 12 Sudoeste 0 -- -- 83
2020-02-08 21:00:00 8.7 4 Sur 22 Oeste 0 -- -- 85
2020-02-08 20:00:00 8.6 2 Oeste 11 Oeste 0 -- -- 85
2020-02-08 19:00:00 8.1 4 Oeste 8 Noroeste 0 -- -- 87
2020-02-08 18:00:00 9.2 6 Noroeste 12 Norte 0 -- -- 81
2020-02-08 17:00:00 10.8 9 Noroeste 14 Noroeste 0 -- -- 76
2020-02-08 16:00:00 12.5 6 Sudeste 12 Este 0 -- -- 69
2020-02-08 15:00:00 13.1 5 Norte 13 Norte 0 -- -- 68
2020-02-08 14:00:00 11.9 4 Norte 16 Noroeste 0 -- -- 72
2020-02-08 13:00:00 11.4 10 Norte 16 Norte 0 -- -- 73
2020-02-08 12:00:00 11 6 Norte 10 Norte 0 -- -- 73
2020-02-08 11:00:00 9.6 6 Norte 9 Norte 0 -- -- 77
2020-02-08 10:00:00 7.4 0 Calma 14 Sudeste 0 -- -- 85
2020-02-08 09:00:00 2.3 10 Sudeste 14 Sudeste 0 -- -- 98
2020-02-08 08:00:00 0.7 0 Calma 10 Sudeste 0 -- -- 98
2020-02-08 07:00:00 1.6 5 Sudeste 15 Sudeste 0 -- -- 95
2020-02-08 06:00:00 0.9 4 Sudeste 14 Sudeste 0 -- -- 96
2020-02-08 05:00:00 1.6 9 Sudeste 13 Sudeste 0 -- -- 95
2020-02-08 04:00:00 1.5 2 Nordeste 10 Sudeste 0 -- -- 96
2020-02-08 03:00:00 2.3 3 Sudeste 10 Sudeste 0 -- -- 92
2020-02-08 02:00:00 2.3 5 Sur 12 Sudeste 0 -- -- 94
2020-02-08 01:00:00 2.1 10 Sudeste 13 Sudeste 0 -- -- 94
2020-02-08 00:00:00 1.8 2 Sur 12 Sudeste 0 -- -- 95
2020-02-07 23:00:00 2.5 7 Sudeste 12 Sudeste 0 -- -- 94
2020-02-07 22:00:00 2.6 0 Calma 11 Sudeste 0 -- -- 94
2020-02-07 21:00:00 3.9 9 Sudeste 12 Sudeste 0 -- -- 92
2020-02-07 20:00:00 4.7 6 Sudeste 12 Sur 0 -- -- 90
2020-02-07 19:00:00 6.5 4 Sur 8 Sudeste 0 -- -- 86
2020-02-07 18:00:00 8.7 5 Sudeste 8 Sudeste 0 -- -- 78
2020-02-07 17:00:00 10.9 6 Norte 16 Norte 0 -- -- 70
2020-02-07 16:00:00 11.4 10 Noroeste 15 Norte 0 -- -- 69
2020-02-07 15:00:00 11.6 6 Norte 10 Norte 0 -- -- 67
2020-02-07 14:00:00 10.5 3 Nordeste 9 Oeste 0 -- -- 73
2020-02-07 13:00:00 7.3 4 Norte 9 Norte 0 -- -- 87
2020-02-07 12:00:00 6.3 4 Noroeste 8 Norte 0 -- -- 98
2020-02-07 11:00:00 4.8 3 Sudoeste 8 Norte 0 -- -- 100
2020-02-07 10:00:00 4.2 2 Nordeste 6 Sudeste 0 -- -- 100
2020-02-07 09:00:00 3.3 2 Sudeste 7 Sudoeste 0 -- -- 100
2020-02-07 08:00:00 3.5 2 Sur 7 Sudeste 0 -- -- 100
2020-02-07 07:00:00 4.1 5 Sudeste 6 Este 0 -- -- 99
2020-02-07 06:00:00 4.1 0 Calma 6 Sudeste 0 -- -- 98
2020-02-07 05:00:00 3.6 3 Sur 5 Sudeste 0 -- -- 98
2020-02-07 04:00:00 3.1 0 Calma 5 Sudeste 0 -- -- 98
2020-02-07 03:00:00 4.3 0 Calma 6 Sudeste 0 -- -- 98
2020-02-07 02:00:00 4.8 4 Sur 8 Sudeste 0 -- -- 98
2020-02-07 01:00:00 5.5 9 Sudeste 14 Sudeste 0 -- -- 94
2020-02-07 00:00:00 5.8 8 Sudeste 13 Sudeste 0 -- -- 92
2020-02-06 23:00:00 4.9 3 Sudeste 8 Sur 0 -- -- 92
2020-02-06 22:00:00 3.6 2 Sur 8 Sudeste 0 -- -- 93
2020-02-06 21:00:00 4.8 4 Sudeste 13 Sudeste 0 -- -- 90
2020-02-06 20:00:00 4.5 10 Sudeste 13 Sudeste 0 -- -- 88
2020-02-06 19:00:00 6.2 7 Sudeste 8 Sudeste 0 -- -- 85
2020-02-06 18:00:00 9.1 4 Sudeste 14 Sudeste 0 -- -- 76
2020-02-06 17:00:00 10.7 10 Sudeste 22 Este 0 -- -- 71
2020-02-06 16:00:00 10.8 14 Sudeste 22 Este 0 -- -- 62
2020-02-06 15:00:00 10.7 12 Sudeste 19 Este 0 -- -- 49
2020-02-06 14:00:00 10.7 9 Este 18 Este 0 -- -- 56
2020-02-06 13:00:00 9.8 12 Este 17 Este 0 -- -- 59
2020-02-06 12:00:00 9.6 5 Este 12 Este 0 -- -- 59
2020-02-06 11:00:00 8.3 4 Sudeste 13 Sudeste 0 -- -- 65
2020-02-06 10:00:00 6.9 5 Sudeste 10 Sudeste 0 -- -- 70
2020-02-06 09:00:00 2.9 4 Sur 5 Sudeste 0 -- -- 84
2020-02-06 08:00:00 2.4 3 Sur 6 Sur 0 -- -- 83
2020-02-06 07:00:00 3.5 3 Sur 11 Sur 0 -- -- 81
2020-02-06 06:00:00 2 2 Sudeste 7 Sur 0 -- -- 85
2020-02-06 05:00:00 2.3 3 Sur 10 Sur 0 -- -- 86
2020-02-06 04:00:00 0.6 0 Calma 11 Sudeste 0 -- -- 90
2020-02-06 03:00:00 0.2 3 Sudoeste 14 Sudeste 0 -- -- 89
2020-02-06 02:00:00 1.4 5 Sudeste 14 Sudeste 0 -- -- 87
2020-02-06 01:00:00 0.5 3 Oeste 15 Sudeste 0 -- -- 88
2020-02-06 00:00:00 2.2 12 Sudeste 16 Sudeste 0 -- -- 84
2020-02-05 23:00:00 2.8 7 Sudeste 12 Sudeste 0 -- -- 82
2020-02-05 22:00:00 2.1 10 Sudeste 14 Sudeste 0 -- -- 84
2020-02-05 21:00:00 2.5 4 Sur 15 Sudeste 0 -- -- 82
2020-02-05 20:00:00 3.7 8 Sudeste 14 Sudeste 0 -- -- 78
2020-02-05 19:00:00 4.4 5 Sudeste 12 Sudeste 0 -- -- 77
2020-02-05 18:00:00 6 6 Oeste 9 Oeste 0 -- -- 70
2020-02-05 17:00:00 11.3 7 Oeste 17 Noroeste 0 -- -- 47
2020-02-05 16:00:00 11.5 10 Oeste 18 Oeste 0 -- -- 51
2020-02-05 15:00:00 11.5 10 Noroeste 21 Oeste 0 -- -- 51
2020-02-05 14:00:00 10.2 14 Oeste 24 Oeste 0 -- -- 54
2020-02-05 13:00:00 9.6 15 Noroeste 27 Oeste 0 -- -- 57
2020-02-05 12:00:00 8.3 19 Noroeste 33 Noroeste 0 -- -- 59
2020-02-05 11:00:00 7.7 19 Noroeste 37 Noroeste 0 -- -- 64
2020-02-05 10:00:00 5.9 23 Oeste 43 Oeste 0 -- -- 67
2020-02-05 09:00:00 4.7 25 Oeste 42 Oeste 0 -- -- 74
2020-02-05 08:00:00 4.3 27 Oeste 50 Oeste 0 -- -- 78
2020-02-05 07:00:00 4.2 27 Oeste 45 Noroeste 0 -- -- 76
2020-02-05 06:00:00 4.6 21 Oeste 51 Oeste 0 -- -- 77
2020-02-05 05:00:00 5.1 31 Oeste 54 Noroeste 0 -- -- 75
2020-02-05 04:00:00 5.3 32 Oeste 53 Oeste 0 -- -- 74
2020-02-05 03:00:00 5.4 32 Oeste 56 Oeste 0 -- -- 73
2020-02-05 02:00:00 6 24 Noroeste 64 Oeste 0 -- -- 68
2020-02-05 01:00:00 6.4 46 Oeste 81 Oeste 0 -- -- 68
2020-02-05 00:00:00 6.5 58 Oeste 82 Noroeste 0 -- -- 69
2020-02-04 23:00:00 6.9 64 Oeste 90 Oeste 0 -- -- 67
2020-02-04 22:00:00 6.9 44 Oeste 68 Oeste 0 -- -- 67
2020-02-04 21:00:00 7.3 35 Oeste 55 Oeste 0 -- -- 67
2020-02-04 20:00:00 7.9 32 Oeste 63 Oeste 0 -- -- 66
2020-02-04 19:00:00 9.2 35 Oeste 50 Oeste 0 -- -- 65
2020-02-04 18:00:00 10.2 27 Oeste 60 Oeste 0 -- -- 71
2020-02-04 12:00:00 -- -- -- -- -- -- -- -- --
2020-02-04 11:00:00 13.7 28 Oeste 45 Oeste 0 -- -- 69
2020-02-04 10:00:00 12.4 20 Oeste 35 Oeste 0 -- -- 74
2020-02-04 09:00:00 11.1 13 Oeste 27 Noroeste 0 -- -- 77
2020-02-04 08:00:00 10.8 13 Oeste 33 Oeste 0 -- -- 76
2020-02-04 07:00:00 11.3 16 Oeste 26 Sudoeste 0 -- -- 76
2020-02-04 06:00:00 11.5 17 Oeste 30 Sudoeste 0 -- -- 74
2020-02-04 05:00:00 12.2 15 Oeste 32 Oeste 0 -- -- 70
2020-02-04 04:00:00 13 21 Oeste 45 Oeste 0 -- -- 65
2020-02-04 03:00:00 14.5 19 Oeste 41 Sudoeste 0 -- -- 56
2020-02-04 02:00:00 15.6 29 Oeste 42 Oeste 0 -- -- 51
2020-02-04 01:00:00 15.7 32 Oeste 48 Sudoeste 0 -- -- 49
2020-02-04 00:00:00 16.8 22 Oeste 36 Sudoeste 0 -- -- 45
2020-02-03 23:00:00 16.3 14 Sudoeste 31 Sudoeste 0 -- -- 46
2020-02-03 22:00:00 17.1 15 Sudoeste 35 Sudoeste 0 -- -- 47
2020-02-03 21:00:00 17.2 13 Sudoeste 23 Sudoeste 0 -- -- 56
2020-02-03 20:00:00 16.7 11 Sudoeste 15 Sudoeste 0 -- -- 64
2020-02-03 19:00:00 13.8 9 Sudeste 12 Sudeste 0 -- -- 81
2020-02-03 18:00:00 16.8 3 Sudoeste 7 Sur 0 -- -- 73
2020-02-03 17:00:00 21.8 3 Sudoeste 14 Sudeste 0 -- -- 55
2020-02-03 16:00:00 20.6 12 Este 18 Este 0 -- -- 60
2020-02-03 15:00:00 23 3 Sur 10 Sudoeste 0 -- -- 36
2020-02-03 14:00:00 22.2 5 Oeste 19 Sudoeste 0 -- -- 42
2020-02-03 13:00:00 20.3 14 Oeste -- -- -- -- -- 43
2020-02-03 12:00:00 19.8 14 Oeste 27 Sudoeste 0 -- -- 41
2020-02-03 11:00:00 17.6 18 Oeste 33 Sudoeste 0 -- -- 53
2020-02-03 10:00:00 14.7 22 Sudoeste 30 Sudoeste 0 -- -- 61
2020-02-03 09:00:00 12.9 8 Sur 25 Sudoeste 0 -- -- 67
2020-02-03 08:00:00 12.9 14 Sudoeste 26 Sudoeste 0 -- -- 67
2020-02-03 07:00:00 12.2 5 Oeste 39 Oeste 0 -- -- 75
2020-02-03 06:00:00 12.6 12 Oeste 40 Sudoeste 0 -- -- 74
2020-02-03 05:00:00 13.6 27 Oeste 38 Oeste 0 -- -- 70
2020-02-03 04:00:00 12.6 7 Sudeste 27 Sudeste 0 -- -- 75
2020-02-03 03:00:00 12.9 10 Sudeste 22 Sudeste 0 -- -- 75
2020-02-03 02:00:00 14.6 11 Sudoeste 36 Sudoeste 0 -- -- 69
2020-02-03 01:00:00 13.4 5 Sudeste 22 Sudoeste 0 -- -- 75
2020-02-03 00:00:00 13.6 6 Sur 17 Sudoeste 0 -- -- 75
2020-02-02 23:00:00 14.7 15 Oeste 25 Sudoeste 0 -- -- 71
2020-02-02 22:00:00 14.8 17 Oeste 32 Oeste 0 -- -- 71
2020-02-02 21:00:00 16.3 18 Oeste 29 Sudoeste 0 -- -- 63
2020-02-02 20:00:00 15.9 13 Sudoeste 21 Sudoeste 0 -- -- 62
2020-02-02 19:00:00 15.8 10 Sudoeste 16 Sudoeste 0 -- -- 62
2020-02-02 18:00:00 17.5 8 Oeste 23 Oeste 0 -- -- 60
2020-02-02 17:00:00 19.3 12 Oeste 23 Oeste 0 -- -- 54
2020-02-02 16:00:00 19.7 14 Oeste 39 Oeste 0 -- -- 51
2020-02-02 15:00:00 19.5 20 Sudoeste 33 Sudoeste 0 -- -- 53
2020-02-02 14:00:00 19.2 17 Sudoeste 30 Sudoeste 0 -- -- 53
2020-02-02 13:00:00 18.8 13 Sudoeste 27 Sudoeste 0 -- -- 56
2020-02-02 12:00:00 17.7 13 Sudoeste 32 Sudoeste 0 -- -- 58
2020-02-02 11:00:00 16.1 14 Sudoeste 34 Sudoeste 0 -- -- 64
2020-02-02 10:00:00 14.1 19 Sudoeste 32 Sudoeste 0 -- -- 71
2020-02-02 09:00:00 12.6 15 Sudoeste 32 Sudoeste 0 -- -- 76
2020-02-02 08:00:00 12.8 19 Sudoeste 47 Sudoeste 0 -- -- 74
2020-02-02 07:00:00 13.5 24 Sudoeste 45 Oeste 0 -- -- 72
2020-02-02 06:00:00 14 26 Sudoeste 52 Oeste 0 -- -- 71
2020-02-02 05:00:00 14.1 26 Oeste 45 Oeste 0 -- -- 71
2020-02-02 04:00:00 14.1 29 Oeste 45 Oeste 0 -- -- 72
2020-02-02 03:00:00 14.5 30 Sudoeste 51 Oeste 0 -- -- 70
2020-02-02 02:00:00 14.6 21 Sudoeste 40 Oeste 0 -- -- 70
2020-02-02 01:00:00 14.6 18 Sudoeste 37 Sudoeste 0 -- -- 70
2020-02-02 00:00:00 14.8 23 Sudoeste 38 Sudoeste 0 -- -- 72
2020-02-01 23:00:00 14.5 19 Sudoeste 34 Oeste 0 -- -- 73
2020-02-01 22:00:00 14.7 15 Sudoeste 33 Sudoeste 0 -- -- 72
2020-02-01 21:00:00 14.9 15 Sudoeste 24 Sudoeste 0 -- -- 70
2020-02-01 20:00:00 14.5 7 Oeste 24 Sudoeste 0 -- -- 72
2020-02-01 19:00:00 15.4 12 Sudoeste 23 Sudoeste 0 -- -- 70
2020-02-01 18:00:00 15.9 6 Oeste 17 Noroeste 0 -- -- 70
2020-02-01 17:00:00 17.8 13 Oeste 27 Noroeste 0 -- -- 60
2020-02-01 16:00:00 18.6 14 Oeste 23 Oeste 0 -- -- 61
2020-02-01 15:00:00 18.1 9 Norte 29 Noroeste 0 -- -- 64
2020-02-01 14:00:00 18.8 19 Oeste 33 Noroeste 0 -- -- 60
2020-02-01 13:00:00 18 17 Oeste 33 Sudoeste 0 -- -- 64
2020-02-01 12:00:00 16.3 22 Oeste 34 Sudoeste 0 -- -- 70
2020-02-01 11:00:00 15.6 23 Oeste 39 Sudoeste 0 -- -- 73
2020-02-01 10:00:00 15 27 Sudoeste 46 Oeste 0.2 -- -- 74
2020-02-01 09:00:00 13.7 15 Sudoeste 37 Oeste 0 -- -- 78
2020-02-01 08:00:00 12.6 12 Sudoeste 19 Sur 0 -- -- 82
2020-02-01 07:00:00 12.2 11 Sudoeste 27 Sudoeste 0 -- -- 83
2020-02-01 06:00:00 12 14 Sudoeste 36 Sudoeste 0.4 -- -- 83
2020-02-01 05:00:00 12.6 23 Sudoeste 39 Sudoeste 0 -- -- 76
2020-02-01 04:00:00 13.7 24 Sudoeste 39 Sudoeste 0 -- -- 69
2020-02-01 03:00:00 12.5 9 Sudoeste 19 Sur 0 -- -- 73
2020-02-01 02:00:00 12.8 20 Oeste 42 Oeste 0 -- -- 71
2020-02-01 01:00:00 12.8 14 Oeste 33 Sudoeste 0 -- -- 71
2020-02-01 00:00:00 11.9 7 Sur 40 Sudoeste 0 -- -- 73
2020-01-31 23:00:00 13.1 22 Sudoeste 53 Sudoeste 0 -- -- 68
2020-01-31 22:00:00 13.2 21 Sudoeste 40 Oeste 0 -- -- 67
2020-01-31 21:00:00 13 12 Sudoeste 31 Sudoeste 0 -- -- 68
2020-01-31 20:00:00 13.5 14 Sudoeste 31 Sudoeste 0 -- -- 66
2020-01-31 19:00:00 13.5 9 Sudoeste 17 Sudoeste 0 -- -- 65
2020-01-31 18:00:00 14.7 7 Oeste 26 Sudoeste 0 -- -- 61
2020-01-31 17:00:00 16.3 16 Oeste 32 Sudoeste 0 -- -- 56
2020-01-31 16:00:00 16.7 20 Oeste 32 Sudoeste 0 -- -- 55
2020-01-31 15:00:00 17.1 25 Oeste 36 Oeste 0 -- -- 55
2020-01-31 14:00:00 16.7 25 Oeste 41 Oeste 0 -- -- 59
2020-01-31 13:00:00 15.7 27 Oeste 42 Sudoeste 0 -- -- 63
2020-01-31 12:00:00 15.1 26 Oeste 48 Sudoeste 0 -- -- 65
2020-01-31 11:00:00 14 31 Sudoeste 54 Sudoeste 0 -- -- 69
2020-01-31 10:00:00 12.8 28 Oeste 46 Oeste 0 -- -- 73
2020-01-31 09:00:00 11.9 24 Oeste 48 Oeste 0 -- -- 76
2020-01-31 08:00:00 11.4 29 Oeste 51 Sudoeste 0 -- -- 77
2020-01-31 07:00:00 11.5 31 Oeste 47 Sudoeste 0 -- -- 77
2020-01-31 06:00:00 11.4 27 Oeste 51 Oeste 0 -- -- 78
2020-01-31 05:00:00 11.5 26 Oeste 49 Sudoeste 0 -- -- 77
2020-01-31 04:00:00 11.7 29 Sudoeste 46 Oeste 0 -- -- 76
2020-01-31 03:00:00 11.7 22 Oeste 39 Oeste 0 -- -- 75
2020-01-31 02:00:00 11.6 20 Oeste 35 Sudoeste 0 -- -- 75
2020-01-31 01:00:00 11.5 20 Oeste 42 Sudoeste 0 -- -- 74
2020-01-31 00:00:00 11.4 22 Oeste 42 Sudoeste 0 -- -- 73
2020-01-30 23:00:00 11.7 26 Oeste 45 Oeste 0 -- -- 71
2020-01-30 22:00:00 11.4 32 Oeste 48 Sudoeste 0 -- -- 71
2020-01-30 21:00:00 11.3 21 Oeste 32 Sudoeste 0 -- -- 70
2020-01-30 20:00:00 11.6 12 Oeste 42 Oeste 0 -- -- 67
2020-01-30 19:00:00 12.4 27 Oeste 42 Sudoeste 0 -- -- 63
2020-01-30 18:00:00 12.8 19 Oeste 40 Sudoeste 0 -- -- 64
2020-01-30 17:00:00 13.8 26 Oeste 43 Sudoeste 0 -- -- 60
2020-01-30 16:00:00 13.6 26 Oeste 42 Sudoeste 0 -- -- 62
2020-01-30 15:00:00 13.8 15 Oeste 32 Sudoeste 0 -- -- 59
2020-01-30 14:00:00 15.1 17 Sudoeste 58 Sudoeste 0 -- -- 53
2020-01-30 13:00:00 14.4 22 Oeste 52 Sudoeste 0 -- -- 55
2020-01-30 12:00:00 13.6 20 Sudoeste 32 Sudoeste 0 -- -- 59
2020-01-30 11:00:00 13.2 17 Sudoeste 51 Sudoeste 0 -- -- 64
2020-01-30 10:00:00 13.1 26 Sudoeste 40 Sur 0 -- -- 68
2020-01-30 09:00:00 11.3 8 Sur 30 Sudoeste 0 -- -- 75
2020-01-30 08:00:00 11.6 15 Oeste 38 Sudoeste 0 -- -- 74
2020-01-30 07:00:00 11.8 18 Sudoeste 35 Oeste 0 -- -- 74
2020-01-30 06:00:00 11.9 14 Sudoeste 41 Sudoeste 0 -- -- 74
2020-01-30 05:00:00 12 18 Sudoeste 41 Sudoeste 0 -- -- 73
2020-01-30 04:00:00 11.6 10 Sudoeste 28 Oeste 0 -- -- 74
2020-01-30 03:00:00 11.2 6 Sudoeste 34 Sudoeste 0 -- -- 77
2020-01-30 02:00:00 12.5 23 Oeste 36 Oeste 0 -- -- 73
2020-01-30 01:00:00 12.8 23 Oeste 38 Oeste 0 -- -- 72
2020-01-30 00:00:00 13 22 Oeste 39 Oeste 0 -- -- 71
2020-01-29 23:00:00 13.1 18 Oeste 42 Sudoeste 0 -- -- 69
2020-01-29 22:00:00 13.2 19 Oeste 36 Oeste 0 -- -- 68
2020-01-29 21:00:00 13.5 21 Oeste 37 Oeste 0 -- -- 66
2020-01-29 20:00:00 13.6 10 Sudoeste 21 Sudoeste 0 -- -- 63
2020-01-29 19:00:00 13.1 9 Sudoeste 19 Sudoeste 0 -- -- 64
2020-01-29 18:00:00 14.4 10 Sudoeste 29 Sudoeste 0 -- -- 57
2020-01-29 17:00:00 15.7 16 Oeste 29 Sudoeste 0 -- -- 55
2020-01-29 16:00:00 16.3 18 Oeste 28 Oeste 0 -- -- 55
2020-01-29 15:00:00 16.6 16 Oeste 38 Oeste 0 -- -- 59
2020-01-29 14:00:00 16.1 21 Oeste 41 Oeste 0 -- -- 61
2020-01-29 13:00:00 15.1 24 Oeste 39 Sudoeste 0 -- -- 65
2020-01-29 12:00:00 14.9 20 Oeste 44 Oeste 0 -- -- 67
2020-01-29 11:00:00 13.7 27 Oeste 46 Oeste 0 -- -- 71
2020-01-29 10:00:00 12.7 18 Sudoeste 32 Oeste 0 -- -- 76
2020-01-29 09:00:00 11 14 Oeste 30 Oeste 0 -- -- 83
2020-01-29 08:00:00 9.4 4 Oeste 14 Oeste 0 -- -- 90
2020-01-29 07:00:00 10.9 9 Oeste 32 Oeste 0 -- -- 86
2020-01-29 06:00:00 12 19 Oeste 29 Oeste 0 -- -- 82
2020-01-29 05:00:00 12.2 13 Oeste 24 Sudoeste 0 -- -- 80
2020-01-29 04:00:00 12 16 Oeste 32 Sudoeste 0 -- -- 82
2020-01-29 03:00:00 11.7 8 Sudoeste 19 Sudoeste 0 -- -- 84
2020-01-29 02:00:00 11.2 6 Sudoeste 12 Sudoeste 0 -- -- 87
2020-01-29 01:00:00 11.2 5 Sur 24 Oeste 0 -- -- 89
2020-01-29 00:00:00 11.9 11 Sudoeste 23 Sudoeste 0 -- -- 85
2020-01-28 23:00:00 12 14 Oeste 24 Sudoeste 0 -- -- 85
2020-01-28 22:00:00 11.5 15 Sudoeste 28 Sudoeste 0.2 -- -- 88
2020-01-28 21:00:00 10.1 10 Sudoeste 13 Sudoeste 0 -- -- 92
2020-01-28 20:00:00 10 4 Oeste 13 Norte 0.4 -- -- 95
2020-01-28 19:00:00 10.8 8 Noroeste 17 Oeste 1 -- -- 94
2020-01-28 18:00:00 12.1 10 Oeste 26 Sudoeste 0.2 -- -- 86
2020-01-28 17:00:00 13.1 15 Oeste 27 Sudoeste 0 -- -- 81
2020-01-28 16:00:00 13 10 Oeste 27 Oeste 0 -- -- 85
2020-01-28 15:00:00 11.9 17 Oeste 40 Sudoeste 0.4 -- -- 92
2020-01-28 14:00:00 14.3 19 Oeste 49 Sudoeste 0 -- -- 65
2020-01-28 13:00:00 14.7 32 Oeste 51 Oeste 0 -- -- 63
2020-01-28 12:00:00 14.2 25 Oeste 50 Oeste 0 -- -- 67
2020-01-28 11:00:00 13.3 28 Oeste 46 Sudoeste 0 -- -- 69
2020-01-28 10:00:00 12.2 24 Oeste 42 Sudoeste 0 -- -- 72
2020-01-28 09:00:00 11.1 26 Oeste 49 Oeste 0 -- -- 75
2020-01-28 08:00:00 10.4 17 Oeste 27 Sudoeste 0 -- -- 77
2020-01-28 07:00:00 10.5 23 Sudoeste 35 Sudoeste 0 -- -- 77
2020-01-28 06:00:00 10.3 14 Oeste 35 Sudoeste 0 -- -- 77
2020-01-28 05:00:00 10.3 21 Oeste 41 Sudoeste 0 -- -- 74
2020-01-28 04:00:00 9.8 21 Sudoeste 47 Sudoeste 0 -- -- 74
2020-01-28 03:00:00 9.8 18 Oeste 47 Sudoeste 0 -- -- 73
2020-01-28 02:00:00 9.8 21 Sudoeste 46 Sudoeste 0 -- -- 71
2020-01-28 01:00:00 9.5 19 Sudoeste 37 Sudoeste 0 -- -- 71
2020-01-28 00:00:00 9.3 24 Sudoeste 39 Sudoeste 0 -- -- 72
2020-01-27 23:00:00 9.2 18 Sudoeste 38 Sudoeste 0 -- -- 72
2020-01-27 22:00:00 9 20 Sudoeste 37 Sudoeste 0 -- -- 73
2020-01-27 21:00:00 9.3 15 Sudoeste 43 Sudoeste 0 -- -- 72
2020-01-27 20:00:00 9.8 20 Sudoeste 40 Sudoeste 0 -- -- 68
2020-01-27 19:00:00 9.9 22 Sudoeste 36 Oeste 0 -- -- 67
2020-01-27 18:00:00 9.5 9 Sur 38 Sudoeste 0 -- -- 66
2020-01-27 17:00:00 9.3 9 Sur 39 Sudoeste 0 -- -- 67
2020-01-27 16:00:00 9.5 14 Sur 41 Sudoeste 0 -- -- 66
2020-01-27 15:00:00 10 8 Sudoeste 26 Sudoeste 0 -- -- 62
2020-01-27 14:00:00 10 13 Oeste 29 Sur 0 -- -- 63
2020-01-27 13:00:00 9.7 10 Sudoeste 38 Oeste 0 -- -- 64
2020-01-27 12:00:00 9 17 Sudoeste 36 Sudoeste 0 -- -- 62
2020-01-27 11:00:00 8.5 12 Sudoeste 33 Sudoeste 0 -- -- 63
2020-01-27 10:00:00 7.3 14 Sudoeste 22 Sudoeste 0 -- -- 66
2020-01-27 09:00:00 3.8 5 Sur 13 Sudeste 0 -- -- 80
2020-01-27 08:00:00 3.9 5 Sudeste 12 Sudeste 0 -- -- 78
2020-01-27 07:00:00 4.8 4 Sudoeste 14 Sudoeste 0 -- -- 75
2020-01-27 06:00:00 4.9 6 Sudoeste 13 Oeste 0 -- -- 73
2020-01-27 05:00:00 5.5 5 Sudoeste 19 Oeste 0 -- -- 72
2020-01-27 04:00:00 5.9 5 Este 22 Oeste 0 -- -- 72
2020-01-27 03:00:00 7.3 9 Sudoeste 36 Oeste 0 -- -- 68
2020-01-27 02:00:00 7.2 14 Sudoeste 35 Sudoeste 0 -- -- 68
2020-01-27 01:00:00 7.4 20 Sudoeste 45 Oeste 0 -- -- 67
2020-01-27 00:00:00 7.5 19 Sudoeste 33 Sudoeste 0 -- -- 66
2020-01-26 23:00:00 7.1 14 Sudoeste 30 Sudoeste 0 -- -- 70
2020-01-26 22:00:00 6.5 13 Sudoeste 23 Sudoeste 0 -- -- 73
2020-01-26 21:00:00 4.1 7 Sudeste 17 Sudoeste 0 -- -- 84
2020-01-26 20:00:00 7 11 Oeste 15 Sudoeste 0 -- -- 70
2020-01-26 19:00:00 7.1 4 Oeste 10 Sudoeste 0 -- -- 80
2020-01-26 18:00:00 9.3 4 Sudoeste 14 Sudoeste 0 -- -- 70
2020-01-26 17:00:00 10.2 9 Oeste 20 Oeste 0 -- -- 65
2020-01-26 16:00:00 10 14 Oeste 25 Sudoeste 0 -- -- 69
2020-01-26 15:00:00 10.7 15 Oeste 33 Oeste 0 -- -- 68
2020-01-26 14:00:00 10.5 24 Oeste 38 Sudoeste 0.2 -- -- 69
2020-01-26 13:00:00 9.3 13 Oeste 26 Oeste 0 -- -- 77
2020-01-26 12:00:00 8.8 14 Oeste 25 Oeste 0 -- -- 83
2020-01-26 11:00:00 8.6 19 Oeste 27 Oeste 0 -- -- 86
2020-01-26 10:00:00 6.6 15 Oeste 25 Sudoeste 0 -- -- 94
2020-01-26 09:00:00 6.4 18 Oeste 24 Sudoeste 0 -- -- 92
2020-01-26 08:00:00 6 10 Oeste 18 Oeste 0 -- -- 95
2020-01-26 07:00:00 5.6 6 Sudoeste 9 Sudoeste 0 -- -- 100
2020-01-26 06:00:00 5.2 2 Sudeste 5 Sudeste 0 -- -- 99
2020-01-26 05:00:00 5.4 2 Sudoeste 6 Oeste 0 -- -- 99
2020-01-26 04:00:00 6.4 7 Oeste 10 Oeste 0 -- -- 97
2020-01-26 03:00:00 6.5 6 Oeste 14 Oeste 0 -- -- 98
2020-01-26 02:00:00 6.7 8 Oeste 11 Oeste 0.2 -- -- 99
2020-01-26 01:00:00 6.8 0 Calma 6 Este 0.6 -- -- 98
2020-01-26 00:00:00 7.2 3 Este 8 Sudoeste 0 -- -- 97
2020-01-25 23:00:00 7.3 6 Oeste 11 Sudoeste 0 -- -- 98
2020-01-25 22:00:00 7.4 2 Sur 7 Sudoeste 1 -- -- 98
2020-01-25 21:00:00 7.3 3 Sur 4 Oeste 1 -- -- 97
2020-01-25 20:00:00 7.7 3 Sudeste 8 Sur 0.2 -- -- 92
2020-01-25 19:00:00 7.8 3 Sur 10 Sur 0 -- -- 88
2020-01-25 18:00:00 7.9 5 Sudeste 12 Sudeste 0 -- -- 88
2020-01-25 17:00:00 8.7 8 Este 13 Sudeste 0 -- -- 81
2020-01-25 16:00:00 9.8 8 Este 18 Este 0 -- -- 71
2020-01-25 15:00:00 10.7 6 Este 13 Sudeste 0 -- -- 72
2020-01-25 14:00:00 8.5 13 Este 20 Este 0 -- -- 85
2020-01-25 13:00:00 8.3 5 Norte 11 Norte 0 -- -- 93
2020-01-25 12:00:00 7.6 4 Nordeste 8 Norte 0.2 -- -- 93
2020-01-25 11:00:00 6.6 0 Calma 8 Sur 0.2 -- -- 98
2020-01-25 10:00:00 5.2 4 Sur 10 Sudeste 0 -- -- 99
2020-01-25 09:00:00 5.2 5 Sudeste 10 Sudeste 0 -- -- 98
2020-01-25 08:00:00 5.1 5 Sudeste 10 Sudeste 0 -- -- 95
2020-01-25 07:00:00 5 3 Sudoeste 6 Sudoeste 0 -- -- 91
2020-01-25 06:00:00 5.4 0 Calma 8 Sudeste 0 -- -- 88
2020-01-25 05:00:00 6.2 4 Sudeste 9 Sur 0 -- -- 85
2020-01-25 04:00:00 5.8 0 Calma 6 Sudeste 0 -- -- 82
2020-01-25 03:00:00 6.4 3 Este 9 Sur 0 -- -- 79
2020-01-25 02:00:00 7.1 3 Sur 8 Sudoeste 0 -- -- 74
2020-01-25 01:00:00 7.6 5 Sudoeste 10 Sur 0 -- -- 76
2020-01-25 00:00:00 7.4 6 Sur 9 Sur 0 -- -- 77
2020-01-24 23:00:00 7.4 9 Sudeste 12 Sudeste 0 -- -- 79
2020-01-24 22:00:00 7.5 6 Sur 14 Sudeste 0 -- -- 79
2020-01-24 21:00:00 6.8 8 Sudeste 10 Sudeste 0 -- -- 91
2020-01-24 20:00:00 6.8 3 Sur 7 Sur 0 -- -- 93
2020-01-24 19:00:00 6.6 3 Sur 8 Sur 0 -- -- 95
2020-01-24 18:00:00 7.7 5 Sudeste 11 Sudeste 0 -- -- 87
2020-01-24 17:00:00 8.8 8 Este 12 Este 0 -- -- 87
2020-01-24 16:00:00 9.9 6 Norte 9 Norte 0 -- -- 85
2020-01-24 15:00:00 9.8 6 Norte 13 Norte 0 -- -- 81
2020-01-24 14:00:00 10.4 5 Sudeste 13 Sudeste 0 -- -- 65
2020-01-24 13:00:00 11.1 5 Este 12 Este 0 -- -- 64
2020-01-24 12:00:00 10.2 5 Norte 13 Este 0 -- -- 72
2020-01-24 11:00:00 9.3 3 Este 8 Este 0 -- -- 71
2020-01-24 10:00:00 5.8 3 Oeste 4 Sudeste 0 -- -- 89
2020-01-24 09:00:00 1.8 3 Sudeste 9 Sudeste 0 -- -- 100
2020-01-24 08:00:00 2.5 4 Sudeste 6 Sudeste 0 -- -- 100
2020-01-24 07:00:00 4.2 4 Sudoeste 9 Sur 0 -- -- 100
2020-01-24 06:00:00 4.9 4 Sudeste 9 Sudeste 0 -- -- 100
2020-01-24 05:00:00 5.2 4 Sudeste 13 Sudeste 0 -- -- 99
2020-01-24 04:00:00 5.5 6 Sudeste 13 Sudeste 0 -- -- 99
2020-01-24 03:00:00 5.6 4 Este 12 Este 0 -- -- 98
2020-01-24 02:00:00 5.8 5 Este 10 Este 0 -- -- 97
2020-01-24 01:00:00 5.8 2 Norte 6 Sudeste 0 -- -- 97
2020-01-24 00:00:00 5.9 0 Calma 10 Sudeste 0 -- -- 97
2020-01-23 23:00:00 6.1 6 Este 16 Sudeste 0 -- -- 95
2020-01-23 22:00:00 5.9 10 Sudeste 26 Sudeste 0 -- -- 96
2020-01-23 21:00:00 6 19 Este 28 Este 0 -- -- 95
2020-01-23 20:00:00 6.1 10 Este 22 Este 0 -- -- 94
2020-01-23 19:00:00 6.3 8 Este 21 Este 0 -- -- 94
2020-01-23 18:00:00 6.9 12 Este 21 Este 0 -- -- 92
2020-01-23 17:00:00 7.5 11 Este 24 Este 0 -- -- 84
2020-01-23 16:00:00 7.6 12 Este 21 Este 0 -- -- 86
2020-01-23 15:00:00 7.7 14 Este 21 Sudeste 0 -- -- 84
2020-01-23 14:00:00 8.6 14 Sudeste 19 Sudeste 0 -- -- 78
2020-01-23 13:00:00 7.6 10 Este 15 Este 0 -- -- 86
2020-01-23 12:00:00 7.1 0 Calma 11 Sur 0 -- -- 79
2020-01-23 11:00:00 5.1 4 Sur 27 Sudoeste 0 -- -- 85
2020-01-23 10:00:00 5.2 11 Sudoeste 18 Sudoeste 0 -- -- 88
2020-01-23 09:00:00 3.9 7 Sudoeste 24 Sudoeste 0 -- -- 94
2020-01-23 08:00:00 4.1 8 Sudoeste 18 Sudoeste 0 -- -- 93
2020-01-23 07:00:00 4.9 8 Sudoeste 13 Sudoeste 0 -- -- 96
2020-01-23 06:00:00 4.1 5 Sudeste 12 Sur 0 -- -- 100
2020-01-23 05:00:00 4.4 6 Sur 13 Sur 0 -- -- 100
2020-01-23 04:00:00 4.6 4 Sudeste 10 Sudeste 0 -- -- 100
2020-01-23 03:00:00 4.8 7 Sudeste 10 Este 0 -- -- 100
2020-01-23 02:00:00 4.9 5 Sudeste 9 Sudeste 0 -- -- 100
2020-01-23 01:00:00 4.4 5 Sudeste 9 Sudeste 0.2 -- -- 100
2020-01-23 00:00:00 4.3 5 Sudeste 10 Sudeste 0.2 -- -- 100
2020-01-22 23:00:00 4.5 0 Calma 8 Sudeste 0.4 -- -- 99
2020-01-22 22:00:00 4.3 5 Sudeste 9 Sudeste 0.4 -- -- 99
2020-01-22 21:00:00 4.7 2 Nordeste 10 Noroeste 0.2 -- -- 98
2020-01-22 20:00:00 5.1 4 Norte 14 Nordeste 0 -- -- 94
2020-01-22 19:00:00 4.9 5 Sudeste 14 Sudoeste 0 -- -- 94
2020-01-22 18:00:00 4.7 5 Este 9 Este 0 -- -- 95
2020-01-22 17:00:00 5.3 5 Este 17 Oeste 0 -- -- 92
2020-01-22 16:00:00 5.3 13 Oeste 20 Oeste 0 -- -- 91
2020-01-22 15:00:00 5.8 10 Oeste 17 Oeste 0 -- -- 90
2020-01-22 14:00:00 4.7 14 Oeste 22 Oeste 0 -- -- 94
2020-01-22 13:00:00 4.4 13 Oeste 19 Oeste 0 -- -- 95
2020-01-22 12:00:00 4.2 4 Norte 10 Sudeste 0 -- -- 96
2020-01-22 11:00:00 3.4 4 Sudeste 8 Sudeste 0 -- -- 99
2020-01-22 10:00:00 2.9 5 Sudeste 13 Noroeste 0 -- -- 100
2020-01-22 09:00:00 2.4 4 Sudeste 8 Este 0 -- -- 100
2020-01-22 08:00:00 2.1 2 Nordeste 9 Sudeste 0 -- -- 100
2020-01-22 07:00:00 2.5 4 Este 8 Sudeste 0.2 -- -- 100
2020-01-22 06:00:00 2.5 4 Sudeste 9 Sudeste 0 -- -- 100
2020-01-22 05:00:00 2.5 8 Sudeste 10 Sudeste 0 -- -- 100
2020-01-22 04:00:00 1.9 2 Sur 9 Sudeste 0 -- -- 99
2020-01-22 03:00:00 1.7 5 Sudeste 9 Sudeste 0 -- -- 99
2020-01-22 02:00:00 1.9 6 Sudeste 11 Sudeste 0 -- -- 98
2020-01-22 01:00:00 1.7 6 Sudeste 13 Oeste 0 -- -- 98
2020-01-22 00:00:00 2 9 Oeste 19 Sur 2 -- -- 97
2020-01-21 23:00:00 2.9 10 Sur 21 Sur 4.4 -- -- 99
2020-01-21 22:00:00 2.7 7 Sudeste 10 Sudeste 4.6 -- -- 99
2020-01-21 21:00:00 3.5 6 Sur 13 Sur 4.8 -- -- 99
2020-01-21 20:00:00 3.6 5 Sur 30 Este 7.2 -- -- 98
2020-01-21 19:00:00 6 14 Nordeste 40 Norte 0.4 -- -- 92
2020-01-21 18:00:00 5.6 16 Nordeste 29 Nordeste 0.6 -- -- 99
2020-01-21 17:00:00 2.7 9 Norte 15 Norte 2.6 -- -- 100
2020-01-21 16:00:00 2.7 6 Nordeste 17 Norte 6.4 -- -- 100
2020-01-21 15:00:00 2.6 7 Norte 18 Noroeste 3.6 -- -- 100
2020-01-21 14:00:00 2.4 8 Norte 18 Noroeste 3.4 -- -- 100
2020-01-21 13:00:00 1.8 4 Este 20 Oeste 4.2 -- -- 100
2020-01-21 12:00:00 1.2 5 Sudoeste 11 Sudeste 3.6 -- -- 100
2020-01-21 11:00:00 1.1 3 Sur 30 Noroeste 2.6 -- -- 100
2020-01-21 10:00:00 0.9 13 Noroeste 20 Oeste 4 -- -- 100
2020-01-21 09:00:00 0.2 7 Noroeste 22 Oeste 3.6 -- -- 100
2020-01-21 08:00:00 -0.1 12 Oeste 17 Noroeste 2.2 -- -- 100
2020-01-21 07:00:00 -0.2 13 Oeste 19 Oeste 2.2 -- -- 100
2020-01-21 06:00:00 0 5 Oeste 21 Oeste 1.8 -- -- 99
2020-01-21 05:00:00 -0.1 19 Oeste 30 Noroeste 1.2 -- -- 97
2020-01-21 04:00:00 0 13 Noroeste 29 Oeste 0.8 -- -- 96
2020-01-21 03:00:00 -0.3 19 Oeste 33 Noroeste 1 -- -- 96
2020-01-21 02:00:00 -0.2 13 Oeste 32 Oeste 0.4 -- -- 94
2020-01-21 01:00:00 -0.3 19 Oeste 39 Oeste 0.2 -- -- 95
2020-01-21 00:00:00 -0.4 26 Oeste 42 Oeste 0.2 -- -- 94
2020-01-20 23:00:00 -0.3 21 Oeste 35 Oeste 0.2 -- -- 94
2020-01-20 22:00:00 0.5 14 Oeste 27 Oeste 0 -- -- 85
2020-01-20 21:00:00 1.8 14 Oeste 26 Oeste 0 -- -- 69
2020-01-20 20:00:00 2.2 8 Noroeste 40 Oeste 0 -- -- 65
2020-01-20 19:00:00 2 32 Oeste 43 Oeste 0 -- -- 66
2020-01-20 18:00:00 2.1 28 Oeste 46 Oeste 0 -- -- 65
2020-01-20 17:00:00 2.5 27 Oeste 39 Oeste 0 -- -- 62
2020-01-20 16:00:00 2.5 26 Oeste 41 Oeste 0 -- -- 64
2020-01-20 15:00:00 3 24 Oeste 35 Oeste 0 -- -- 61
2020-01-20 14:00:00 2.6 22 Oeste 38 Oeste 0 -- -- 61
2020-01-20 13:00:00 2 29 Oeste 45 Oeste 0 -- -- 62
2020-01-20 12:00:00 1.6 30 Oeste 47 Oeste 0 -- -- 64
2020-01-20 11:00:00 0.7 26 Oeste 48 Oeste 0 -- -- 67
2020-01-20 10:00:00 0.5 27 Oeste 44 Oeste 0 -- -- 68
2020-01-20 09:00:00 -0.2 28 Oeste 42 Oeste 0 -- -- 70
2020-01-20 08:00:00 -0.3 29 Oeste 45 Oeste 0 -- -- 70
2020-01-20 07:00:00 0 36 Oeste 53 Oeste 0 -- -- 69
2020-01-20 06:00:00 0.3 35 Oeste 54 Oeste 0 -- -- 68
2020-01-20 05:00:00 0.4 32 Oeste 54 Oeste 0 -- -- 68
2020-01-20 04:00:00 0.2 40 Oeste 63 Oeste 0 -- -- 70
2020-01-20 03:00:00 0.4 41 Oeste 61 Oeste 0 -- -- 69
2020-01-20 02:00:00 0.8 42 Oeste 57 Oeste 0 -- -- 67
2020-01-20 01:00:00 1 40 Oeste 59 Oeste 0 -- -- 67
2020-01-20 00:00:00 1.5 39 Oeste 57 Oeste 0 -- -- 65
2020-01-19 23:00:00 1.8 40 Oeste 58 Noroeste 0 -- -- 63
2020-01-19 22:00:00 1.9 39 Oeste 59 Oeste 0 -- -- 63
2020-01-19 21:00:00 2.2 39 Oeste 62 Oeste 0 -- -- 64
2020-01-19 20:00:00 2.5 46 Oeste 72 Noroeste 0 -- -- 63
2020-01-19 19:00:00 2.8 47 Oeste 74 Oeste 0 -- -- 65
2020-01-19 18:00:00 3.6 48 Oeste 69 Oeste 0 -- -- 66
2020-01-19 17:00:00 4.3 45 Oeste 69 Oeste 0 -- -- 68
2020-01-19 16:00:00 4.9 44 Oeste 65 Oeste 0 -- -- 73
2020-01-19 15:00:00 5 39 Oeste 65 Noroeste 0 -- -- 77
2020-01-19 14:00:00 4.5 40 Oeste 66 Oeste 0 -- -- 81
2020-01-19 13:00:00 4.3 36 Oeste 52 Oeste 0.2 -- -- 85
2020-01-19 12:00:00 4.1 30 Oeste 42 Oeste 0.8 -- -- 92
2020-01-19 11:00:00 4.1 29 Noroeste 39 Noroeste 2.6 -- -- 97
2020-01-19 10:00:00 4.2 25 Noroeste 36 Noroeste 2.4 -- -- 98
2020-01-19 09:00:00 4.3 23 Noroeste 34 Oeste 0.2 -- -- 98
2020-01-19 08:00:00 4.1 23 Noroeste 38 Noroeste 0 -- -- 98
2020-01-19 07:00:00 4 22 Noroeste 37 Noroeste 0.2 -- -- 97
2020-01-19 06:00:00 4 27 Oeste 38 Noroeste 0 -- -- 96
2020-01-19 05:00:00 3.8 25 Oeste 46 Oeste 0.2 -- -- 96
2020-01-19 04:00:00 3.8 30 Oeste 49 Noroeste 0 -- -- 94
2020-01-19 03:00:00 4.4 26 Noroeste 55 Oeste 0 -- -- 89
2020-01-19 02:00:00 4.4 32 Oeste 55 Noroeste 0 -- -- 90
2020-01-19 01:00:00 4.3 27 Oeste 42 Oeste 0 -- -- 91
2020-01-19 00:00:00 4.8 26 Oeste 63 Sudoeste 0.6 -- -- 90
2020-01-18 23:00:00 7.7 13 Sudoeste 29 Sur 0.4 -- -- 85
2020-01-18 22:00:00 7 11 Sur 24 Sur 0 -- -- 78
2020-01-18 21:00:00 7.6 6 Sur 20 Sudeste 0 -- -- 70
2020-01-18 20:00:00 7.7 2 Sur 8 Sudeste 0 -- -- 68
2020-01-18 19:00:00 8 3 Norte 20 Este 0 -- -- 64
2020-01-18 18:00:00 8.3 12 Sudeste 26 Este 0 -- -- 60
2020-01-18 17:00:00 8.5 5 Sur 25 Este 0 -- -- 62
2020-01-18 16:00:00 8.9 13 Sudeste 24 Este 0 -- -- 63
2020-01-18 15:00:00 8.8 13 Sudeste 28 Este 0 -- -- 62
2020-01-18 14:00:00 10.4 18 Este 30 Este 0 -- -- 55
2020-01-18 13:00:00 10.2 14 Este 21 Este 0 -- -- 57
2020-01-18 12:00:00 8.3 13 Sudeste 18 Este 0 -- -- 60
2020-01-18 11:00:00 8.4 10 Sudeste 19 Sudeste 0 -- -- 61
2020-01-18 10:00:00 6.5 6 Sudeste 21 Sudeste 0 -- -- 68
2020-01-18 09:00:00 3.7 4 Sudeste 12 Sur 0 -- -- 81
2020-01-18 08:00:00 2.7 3 Sudeste 10 Sudeste 0 -- -- 85
2020-01-18 07:00:00 2.6 6 Sudeste 13 Sudeste 0 -- -- 86
2020-01-18 06:00:00 3 7 Sudeste 12 Sudeste 0 -- -- 85
2020-01-18 05:00:00 3.1 6 Sudeste 12 Sudeste 0 -- -- 86
2020-01-18 04:00:00 2.4 4 Sudeste 11 Sudeste 0 -- -- 87
2020-01-18 03:00:00 2.7 5 Sudeste 13 Sudeste 0 -- -- 87
2020-01-18 02:00:00 1.5 5 Sudeste 12 Sudoeste 0 -- -- 89
2020-01-18 01:00:00 3.8 9 Sudoeste 17 Sudoeste 0 -- -- 79
2020-01-18 00:00:00 4.1 11 Sudoeste 19 Oeste 0 -- -- 78